sensor_id;sensor_type;location;lat;lon;timestamp;P1;durP1;ratioP1;P2;durP2;ratioP2
14052;SDS011;7101;51.600;7.310;2023-03-05T00:02:15;12.45;;;3.17;;
14052;SDS011;7101;51.600;7.310;2023-03-05T00:04:42;10.10;;;3.00;;
14052;SDS011;7101;51.600;7.310;2023-03-05T00:07:09;14.57;;;3.15;;
14052;SDS011;7101;51.600;7.310;2023-03-05T00:09:39;11.75;;;2.70;;
14052;SDS011;7101;51.600;7.310;2023-03-05T00:12:07;11.10;;;2.65;;
14052;SDS011;7101;51.600;7.310;2023-03-05T00:14:34;10.48;;;2.65;;
14052;SDS011;7101;51.600;7.310;2023-03-05T00:17:01;13.20;;;3.20;;
14052;SDS011;7101;51.600;7.310;2023-03-05T00:19:28;11.90;;;3.08;;
14052;SDS011;7101;51.600;7.310;2023-03-05T00:21:56;12.95;;;3.03;;
14052;SDS011;7101;51.600;7.310;2023-03-05T00:24:24;14.32;;;2.90;;
14052;SDS011;7101;51.600;7.310;2023-03-05T00:26:53;10.75;;;2.88;;
14052;SDS011;7101;51.600;7.310;2023-03-05T00:29:20;15.80;;;3.22;;
14052;SDS011;7101;51.600;7.310;2023-03-05T00:31:47;13.95;;;3.35;;
14052;SDS011;7101;51.600;7.310;2023-03-05T00:34:14;9.07;;;2.83;;
14052;SDS011;7101;51.600;7.310;2023-03-05T00:36:43;11.23;;;3.40;;
14052;SDS011;7101;51.600;7.310;2023-03-05T00:39:13;8.98;;;2.60;;
14052;SDS011;7101;51.600;7.310;2023-03-05T00:41:42;10.10;;;2.92;;
14052;SDS011;7101;51.600;7.310;2023-03-05T00:44:11;10.90;;;2.45;;
14052;SDS011;7101;51.600;7.310;2023-03-05T00:46:39;10.95;;;2.60;;
14052;SDS011;7101;51.600;7.310;2023-03-05T00:49:06;8.77;;;3.03;;
14052;SDS011;7101;51.600;7.310;2023-03-05T00:51:33;11.88;;;3.10;;
14052;SDS011;7101;51.600;7.310;2023-03-05T00:54:00;15.73;;;2.83;;
14052;SDS011;7101;51.600;7.310;2023-03-05T00:56:28;10.25;;;3.25;;
14052;SDS011;7101;51.600;7.310;2023-03-05T00:58:55;11.38;;;3.33;;
14052;SDS011;7101;51.600;7.310;2023-03-05T01:01:23;12.55;;;2.97;;
14052;SDS011;7101;51.600;7.310;2023-03-05T01:03:50;14.40;;;3.50;;
14052;SDS011;7101;51.600;7.310;2023-03-05T01:06:20;10.27;;;3.42;;
14052;SDS011;7101;51.600;7.310;2023-03-05T01:08:47;13.05;;;3.42;;
14052;SDS011;7101;51.600;7.310;2023-03-05T01:11:14;9.73;;;3.47;;
14052;SDS011;7101;51.600;7.310;2023-03-05T01:13:42;9.45;;;3.20;;
14052;SDS011;7101;51.600;7.310;2023-03-05T01:16:10;14.18;;;3.30;;
14052;SDS011;7101;51.600;7.310;2023-03-05T01:18:40;11.68;;;3.22;;
14052;SDS011;7101;51.600;7.310;2023-03-05T01:21:08;12.23;;;3.72;;
14052;SDS011;7101;51.600;7.310;2023-03-05T01:23:36;14.80;;;3.90;;
14052;SDS011;7101;51.600;7.310;2023-03-05T01:26:03;10.98;;;3.47;;
14052;SDS011;7101;51.600;7.310;2023-03-05T01:28:30;14.38;;;3.88;;
14052;SDS011;7101;51.600;7.310;2023-03-05T01:30:58;13.60;;;3.50;;
14052;SDS011;7101;51.600;7.310;2023-03-05T01:33:25;14.68;;;3.53;;
14052;SDS011;7101;51.600;7.310;2023-03-05T01:35:54;12.93;;;3.60;;
14052;SDS011;7101;51.600;7.310;2023-03-05T01:38:21;14.82;;;3.63;;
14052;SDS011;7101;51.600;7.310;2023-03-05T01:40:48;10.20;;;3.85;;
14052;SDS011;7101;51.600;7.310;2023-03-05T01:43:20;14.02;;;4.32;;
14052;SDS011;7101;51.600;7.310;2023-03-05T01:49:09;11.48;;;3.88;;
14052;SDS011;7101;51.600;7.310;2023-03-05T01:51:43;14.30;;;4.10;;
14052;SDS011;7101;51.600;7.310;2023-03-05T01:54:17;9.73;;;3.10;;
14052;SDS011;7101;51.600;7.310;2023-03-05T01:56:46;13.10;;;3.97;;
14052;SDS011;7101;51.600;7.310;2023-03-05T01:59:15;9.18;;;3.40;;
14052;SDS011;7101;51.600;7.310;2023-03-05T02:01:45;11.07;;;4.03;;
14052;SDS011;7101;51.600;7.310;2023-03-05T02:04:16;10.52;;;3.65;;
14052;SDS011;7101;51.600;7.310;2023-03-05T02:06:45;10.75;;;2.90;;
14052;SDS011;7101;51.600;7.310;2023-03-05T02:09:14;8.95;;;3.10;;
14052;SDS011;7101;51.600;7.310;2023-03-05T02:11:41;9.82;;;2.83;;
14052;SDS011;7101;51.600;7.310;2023-03-05T02:14:09;10.32;;;3.05;;
14052;SDS011;7101;51.600;7.310;2023-03-05T02:16:36;8.07;;;2.38;;
14052;SDS011;7101;51.600;7.310;2023-03-05T02:19:05;8.32;;;2.67;;
14052;SDS011;7101;51.600;7.310;2023-03-05T02:21:37;10.90;;;3.00;;
14052;SDS011;7101;51.600;7.310;2023-03-05T02:24:05;8.63;;;2.22;;
14052;SDS011;7101;51.600;7.310;2023-03-05T02:26:32;11.07;;;2.95;;
14052;SDS011;7101;51.600;7.310;2023-03-05T02:29:00;11.18;;;2.50;;
14052;SDS011;7101;51.600;7.310;2023-03-05T02:31:29;10.20;;;2.60;;
14052;SDS011;7101;51.600;7.310;2023-03-05T02:33:56;10.48;;;2.35;;
14052;SDS011;7101;51.600;7.310;2023-03-05T02:36:23;9.88;;;2.10;;
14052;SDS011;7101;51.600;7.310;2023-03-05T02:38:57;10.18;;;2.58;;
14052;SDS011;7101;51.600;7.310;2023-03-05T02:41:24;8.00;;;2.05;;
14052;SDS011;7101;51.600;7.310;2023-03-05T02:43:51;6.72;;;2.13;;
14052;SDS011;7101;51.600;7.310;2023-03-05T02:46:18;8.15;;;2.28;;
14052;SDS011;7101;51.600;7.310;2023-03-05T02:48:45;11.18;;;2.13;;
14052;SDS011;7101;51.600;7.310;2023-03-05T02:51:12;7.97;;;2.20;;
14052;SDS011;7101;51.600;7.310;2023-03-05T02:53:39;8.73;;;2.40;;
14052;SDS011;7101;51.600;7.310;2023-03-05T02:56:07;10.77;;;2.63;;
14052;SDS011;7101;51.600;7.310;2023-03-05T02:58:36;7.30;;;2.20;;
14052;SDS011;7101;51.600;7.310;2023-03-05T03:01:03;9.68;;;2.45;;
14052;SDS011;7101;51.600;7.310;2023-03-05T03:03:30;6.95;;;2.20;;
14052;SDS011;7101;51.600;7.310;2023-03-05T03:05:57;11.43;;;2.25;;
14052;SDS011;7101;51.600;7.310;2023-03-05T03:08:24;6.30;;;2.33;;
14052;SDS011;7101;51.600;7.310;2023-03-05T03:10:51;8.40;;;2.33;;
14052;SDS011;7101;51.600;7.310;2023-03-05T03:13:21;10.50;;;2.50;;
14052;SDS011;7101;51.600;7.310;2023-03-05T03:15:48;6.70;;;2.10;;
14052;SDS011;7101;51.600;7.310;2023-03-05T03:18:15;8.65;;;2.78;;
14052;SDS011;7101;51.600;7.310;2023-03-05T03:20:44;7.70;;;2.55;;
14052;SDS011;7101;51.600;7.310;2023-03-05T03:23:11;7.65;;;2.35;;
14052;SDS011;7101;51.600;7.310;2023-03-05T03:25:38;11.60;;;3.00;;
14052;SDS011;7101;51.600;7.310;2023-03-05T03:28:06;7.78;;;2.47;;
14052;SDS011;7101;51.600;7.310;2023-03-05T03:30:34;11.77;;;3.30;;
14052;SDS011;7101;51.600;7.310;2023-03-05T03:33:01;11.93;;;3.25;;
14052;SDS011;7101;51.600;7.310;2023-03-05T03:35:28;7.60;;;2.80;;
14052;SDS011;7101;51.600;7.310;2023-03-05T03:37:55;10.70;;;2.80;;
14052;SDS011;7101;51.600;7.310;2023-03-05T03:40:22;8.82;;;3.03;;
14052;SDS011;7101;51.600;7.310;2023-03-05T03:42:50;10.00;;;3.20;;
14052;SDS011;7101;51.600;7.310;2023-03-05T03:45:17;11.55;;;3.33;;
14052;SDS011;7101;51.600;7.310;2023-03-05T03:47:48;10.48;;;3.20;;
14052;SDS011;7101;51.600;7.310;2023-03-05T03:50:15;9.73;;;3.40;;
14052;SDS011;7101;51.600;7.310;2023-03-05T03:52:42;8.77;;;3.00;;
14052;SDS011;7101;51.600;7.310;2023-03-05T03:55:09;9.13;;;3.00;;
14052;SDS011;7101;51.600;7.310;2023-03-05T03:57:36;12.07;;;3.13;;
14052;SDS011;7101;51.600;7.310;2023-03-05T04:00:05;8.68;;;3.03;;
14052;SDS011;7101;51.600;7.310;2023-03-05T04:02:35;12.02;;;3.08;;
14052;SDS011;7101;51.600;7.310;2023-03-05T04:05:04;11.85;;;3.03;;
14052;SDS011;7101;51.600;7.310;2023-03-05T04:07:32;9.48;;;3.30;;
14052;SDS011;7101;51.600;7.310;2023-03-05T04:10:00;8.50;;;2.97;;
14052;SDS011;7101;51.600;7.310;2023-03-05T04:12:26;11.40;;;2.95;;
14052;SDS011;7101;51.600;7.310;2023-03-05T04:14:53;11.35;;;3.42;;
14052;SDS011;7101;51.600;7.310;2023-03-05T04:17:20;11.35;;;3.80;;
14052;SDS011;7101;51.600;7.310;2023-03-05T04:19:47;10.02;;;3.40;;
14052;SDS011;7101;51.600;7.310;2023-03-05T04:22:16;8.77;;;3.22;;
14052;SDS011;7101;51.600;7.310;2023-03-05T04:24:43;8.63;;;3.47;;
14052;SDS011;7101;51.600;7.310;2023-03-05T04:27:10;14.60;;;3.88;;
14052;SDS011;7101;51.600;7.310;2023-03-05T04:29:37;13.52;;;3.70;;
14052;SDS011;7101;51.600;7.310;2023-03-05T04:32:04;11.70;;;3.97;;
14052;SDS011;7101;51.600;7.310;2023-03-05T04:34:31;12.63;;;3.92;;
14052;SDS011;7101;51.600;7.310;2023-03-05T04:36:58;12.00;;;4.28;;
14052;SDS011;7101;51.600;7.310;2023-03-05T04:39:27;14.27;;;5.07;;
14052;SDS011;7101;51.600;7.310;2023-03-05T04:41:54;13.77;;;4.50;;
14052;SDS011;7101;51.600;7.310;2023-03-05T04:44:21;14.35;;;4.97;;
14052;SDS011;7101;51.600;7.310;2023-03-05T04:46:50;10.93;;;5.25;;
14052;SDS011;7101;51.600;7.310;2023-03-05T04:49:17;12.98;;;5.30;;
14052;SDS011;7101;51.600;7.310;2023-03-05T04:51:44;11.30;;;4.30;;
14052;SDS011;7101;51.600;7.310;2023-03-05T04:54:11;13.43;;;4.10;;
14052;SDS011;7101;51.600;7.310;2023-03-05T04:56:41;14.98;;;4.55;;
14052;SDS011;7101;51.600;7.310;2023-03-05T04:59:09;11.13;;;3.63;;
14052;SDS011;7101;51.600;7.310;2023-03-05T05:01:36;10.23;;;3.67;;
14052;SDS011;7101;51.600;7.310;2023-03-05T05:04:03;8.05;;;2.95;;
14052;SDS011;7101;51.600;7.310;2023-03-05T05:06:30;7.47;;;2.85;;
14052;SDS011;7101;51.600;7.310;2023-03-05T05:08:57;9.02;;;3.30;;
14052;SDS011;7101;51.600;7.310;2023-03-05T05:11:23;12.30;;;3.05;;
14052;SDS011;7101;51.600;7.310;2023-03-05T05:13:51;9.93;;;3.25;;
14052;SDS011;7101;51.600;7.310;2023-03-05T05:16:18;11.85;;;3.40;;
14052;SDS011;7101;51.600;7.310;2023-03-05T05:18:45;10.30;;;2.90;;
14052;SDS011;7101;51.600;7.310;2023-03-05T05:21:12;11.00;;;3.08;;
14052;SDS011;7101;51.600;7.310;2023-03-05T05:23:39;8.98;;;3.03;;
14052;SDS011;7101;51.600;7.310;2023-03-05T05:26:06;9.30;;;3.30;;
14052;SDS011;7101;51.600;7.310;2023-03-05T05:28:34;8.57;;;2.90;;
14052;SDS011;7101;51.600;7.310;2023-03-05T05:31:07;10.70;;;2.80;;
14052;SDS011;7101;51.600;7.310;2023-03-05T05:33:34;9.77;;;3.10;;
14052;SDS011;7101;51.600;7.310;2023-03-05T05:36:02;9.90;;;4.03;;
14052;SDS011;7101;51.600;7.310;2023-03-05T05:38:29;11.55;;;5.60;;
14052;SDS011;7101;51.600;7.310;2023-03-05T05:41:00;15.57;;;6.35;;
14052;SDS011;7101;51.600;7.310;2023-03-05T05:43:28;12.40;;;7.38;;
14052;SDS011;7101;51.600;7.310;2023-03-05T05:45:57;13.50;;;5.57;;
14052;SDS011;7101;51.600;7.310;2023-03-05T05:48:26;16.63;;;5.50;;
14052;SDS011;7101;51.600;7.310;2023-03-05T05:50:53;10.07;;;4.72;;
14052;SDS011;7101;51.600;7.310;2023-03-05T05:53:21;10.68;;;4.72;;
14052;SDS011;7101;51.600;7.310;2023-03-05T05:55:48;11.65;;;4.47;;
14052;SDS011;7101;51.600;7.310;2023-03-05T05:58:15;11.75;;;4.32;;
14052;SDS011;7101;51.600;7.310;2023-03-05T06:00:42;9.45;;;4.28;;
14052;SDS011;7101;51.600;7.310;2023-03-05T06:03:10;11.25;;;4.07;;
14052;SDS011;7101;51.600;7.310;2023-03-05T06:05:38;10.77;;;4.15;;
14052;SDS011;7101;51.600;7.310;2023-03-05T06:08:06;10.95;;;4.00;;
14052;SDS011;7101;51.600;7.310;2023-03-05T06:10:34;8.10;;;4.22;;
14052;SDS011;7101;51.600;7.310;2023-03-05T06:13:01;7.85;;;3.75;;
14052;SDS011;7101;51.600;7.310;2023-03-05T06:15:28;9.88;;;4.30;;
14052;SDS011;7101;51.600;7.310;2023-03-05T06:17:57;9.07;;;4.13;;
14052;SDS011;7101;51.600;7.310;2023-03-05T06:20:24;7.95;;;4.05;;
14052;SDS011;7101;51.600;7.310;2023-03-05T06:22:53;10.55;;;4.20;;
14052;SDS011;7101;51.600;7.310;2023-03-05T06:25:20;8.63;;;4.10;;
14052;SDS011;7101;51.600;7.310;2023-03-05T06:27:46;10.57;;;3.70;;
14052;SDS011;7101;51.600;7.310;2023-03-05T06:30:14;10.57;;;3.97;;
14052;SDS011;7101;51.600;7.310;2023-03-05T06:32:41;9.52;;;3.30;;
14052;SDS011;7101;51.600;7.310;2023-03-05T06:35:08;8.68;;;3.40;;
14052;SDS011;7101;51.600;7.310;2023-03-05T06:37:35;8.20;;;3.08;;
14052;SDS011;7101;51.600;7.310;2023-03-05T06:40:05;7.63;;;2.85;;
14052;SDS011;7101;51.600;7.310;2023-03-05T06:42:34;9.93;;;3.20;;
14052;SDS011;7101;51.600;7.310;2023-03-05T06:45:01;7.47;;;3.05;;
14052;SDS011;7101;51.600;7.310;2023-03-05T06:47:29;9.55;;;4.18;;
14052;SDS011;7101;51.600;7.310;2023-03-05T06:49:56;10.32;;;4.40;;
14052;SDS011;7101;51.600;7.310;2023-03-05T06:52:23;10.93;;;4.57;;
14052;SDS011;7101;51.600;7.310;2023-03-05T06:54:50;10.77;;;4.97;;
14052;SDS011;7101;51.600;7.310;2023-03-05T06:57:23;11.02;;;5.22;;
14052;SDS011;7101;51.600;7.310;2023-03-05T06:59:51;11.88;;;5.82;;
14052;SDS011;7101;51.600;7.310;2023-03-05T07:02:19;13.15;;;5.75;;
14052;SDS011;7101;51.600;7.310;2023-03-05T07:04:45;13.48;;;7.93;;
14052;SDS011;7101;51.600;7.310;2023-03-05T07:07:12;13.90;;;6.82;;
14052;SDS011;7101;51.600;7.310;2023-03-05T07:09:39;11.20;;;5.63;;
14052;SDS011;7101;51.600;7.310;2023-03-05T07:12:08;12.20;;;5.25;;
14052;SDS011;7101;51.600;7.310;2023-03-05T07:14:37;13.40;;;4.80;;
14052;SDS011;7101;51.600;7.310;2023-03-05T07:17:04;13.23;;;4.70;;
14052;SDS011;7101;51.600;7.310;2023-03-05T07:19:32;13.82;;;4.50;;
14052;SDS011;7101;51.600;7.310;2023-03-05T07:22:01;13.57;;;4.25;;
14052;SDS011;7101;51.600;7.310;2023-03-05T07:24:27;13.48;;;4.85;;
14052;SDS011;7101;51.600;7.310;2023-03-05T07:26:54;18.05;;;5.53;;
14052;SDS011;7101;51.600;7.310;2023-03-05T07:29:22;10.90;;;4.97;;
14052;SDS011;7101;51.600;7.310;2023-03-05T07:31:50;16.58;;;5.45;;
14052;SDS011;7101;51.600;7.310;2023-03-05T07:34:18;13.73;;;5.28;;
14052;SDS011;7101;51.600;7.310;2023-03-05T07:36:45;11.45;;;5.40;;
14052;SDS011;7101;51.600;7.310;2023-03-05T07:39:15;13.52;;;5.35;;
14052;SDS011;7101;51.600;7.310;2023-03-05T07:41:43;10.63;;;4.30;;
14052;SDS011;7101;51.600;7.310;2023-03-05T07:44:11;10.88;;;4.30;;
14052;SDS011;7101;51.600;7.310;2023-03-05T07:46:39;18.02;;;4.38;;
14052;SDS011;7101;51.600;7.310;2023-03-05T07:49:08;8.85;;;3.97;;
14052;SDS011;7101;51.600;7.310;2023-03-05T07:51:35;12.05;;;3.80;;
14052;SDS011;7101;51.600;7.310;2023-03-05T07:54:03;11.93;;;4.38;;
14052;SDS011;7101;51.600;7.310;2023-03-05T07:56:32;12.60;;;4.15;;
14052;SDS011;7101;51.600;7.310;2023-03-05T07:59:02;9.70;;;3.60;;
14052;SDS011;7101;51.600;7.310;2023-03-05T08:01:30;10.65;;;4.20;;
14052;SDS011;7101;51.600;7.310;2023-03-05T08:03:58;9.88;;;4.15;;
14052;SDS011;7101;51.600;7.310;2023-03-05T08:06:26;11.75;;;4.22;;
14052;SDS011;7101;51.600;7.310;2023-03-05T08:08:56;11.52;;;3.83;;
14052;SDS011;7101;51.600;7.310;2023-03-05T08:11:23;8.02;;;4.00;;
14052;SDS011;7101;51.600;7.310;2023-03-05T08:13:52;13.80;;;4.15;;
14052;SDS011;7101;51.600;7.310;2023-03-05T08:16:19;11.18;;;4.47;;
14052;SDS011;7101;51.600;7.310;2023-03-05T08:18:49;11.70;;;4.05;;
14052;SDS011;7101;51.600;7.310;2023-03-05T08:21:23;11.95;;;4.25;;
14052;SDS011;7101;51.600;7.310;2023-03-05T08:23:55;11.35;;;4.03;;
14052;SDS011;7101;51.600;7.310;2023-03-05T08:26:24;9.45;;;3.63;;
14052;SDS011;7101;51.600;7.310;2023-03-05T08:28:54;9.23;;;3.97;;
14052;SDS011;7101;51.600;7.310;2023-03-05T08:31:21;9.43;;;3.53;;
14052;SDS011;7101;51.600;7.310;2023-03-05T08:33:50;8.07;;;3.58;;
14052;SDS011;7101;51.600;7.310;2023-03-05T08:36:18;11.48;;;3.53;;
14052;SDS011;7101;51.600;7.310;2023-03-05T08:38:45;13.00;;;3.05;;
14052;SDS011;7101;51.600;7.310;2023-03-05T08:41:14;7.70;;;3.25;;
14052;SDS011;7101;51.600;7.310;2023-03-05T08:43:43;9.35;;;3.65;;
14052;SDS011;7101;51.600;7.310;2023-03-05T08:46:11;8.10;;;3.10;;
14052;SDS011;7101;51.600;7.310;2023-03-05T08:48:40;8.50;;;3.10;;
14052;SDS011;7101;51.600;7.310;2023-03-05T08:51:08;7.93;;;2.70;;
14052;SDS011;7101;51.600;7.310;2023-03-05T08:53:37;6.80;;;2.78;;
14052;SDS011;7101;51.600;7.310;2023-03-05T08:56:05;6.03;;;2.70;;
14052;SDS011;7101;51.600;7.310;2023-03-05T08:58:34;7.78;;;3.33;;
14052;SDS011;7101;51.600;7.310;2023-03-05T09:01:01;7.30;;;2.80;;
14052;SDS011;7101;51.600;7.310;2023-03-05T09:03:28;7.95;;;2.85;;
14052;SDS011;7101;51.600;7.310;2023-03-05T09:05:57;7.75;;;2.38;;
14052;SDS011;7101;51.600;7.310;2023-03-05T09:08:25;9.00;;;2.55;;
14052;SDS011;7101;51.600;7.310;2023-03-05T09:10:53;6.68;;;2.80;;
14052;SDS011;7101;51.600;7.310;2023-03-05T09:13:21;6.75;;;2.30;;
14052;SDS011;7101;51.600;7.310;2023-03-05T09:15:54;8.68;;;2.55;;
14052;SDS011;7101;51.600;7.310;2023-03-05T09:18:21;5.57;;;2.38;;
14052;SDS011;7101;51.600;7.310;2023-03-05T09:20:48;5.15;;;2.38;;
14052;SDS011;7101;51.600;7.310;2023-03-05T09:23:17;11.68;;;3.72;;
14052;SDS011;7101;51.600;7.310;2023-03-05T09:25:46;5.18;;;3.60;;
14052;SDS011;7101;51.600;7.310;2023-03-05T09:28:15;7.47;;;4.80;;
14052;SDS011;7101;51.600;7.310;2023-03-05T09:30:42;4.70;;;2.30;;
14052;SDS011;7101;51.600;7.310;2023-03-05T09:33:12;2.53;;;1.60;;
14052;SDS011;7101;51.600;7.310;2023-03-05T09:35:39;2.33;;;1.35;;
14052;SDS011;7101;51.600;7.310;2023-03-05T09:38:06;4.55;;;1.50;;
14052;SDS011;7101;51.600;7.310;2023-03-05T09:40:36;5.93;;;1.77;;
14052;SDS011;7101;51.600;7.310;2023-03-05T09:43:11;4.63;;;2.00;;
14052;SDS011;7101;51.600;7.310;2023-03-05T09:45:54;3.42;;;2.17;;
14052;SDS011;7101;51.600;7.310;2023-03-05T09:48:32;4.53;;;2.50;;
14052;SDS011;7101;51.600;7.310;2023-03-05T09:51:15;5.78;;;2.60;;
14052;SDS011;7101;51.600;7.310;2023-03-05T09:53:48;5.70;;;2.83;;
14052;SDS011;7101;51.600;7.310;2023-03-05T09:56:22;4.85;;;3.10;;
14052;SDS011;7101;51.600;7.310;2023-03-05T09:58:52;5.47;;;3.22;;
14052;SDS011;7101;51.600;7.310;2023-03-05T10:01:28;7.43;;;3.83;;
14052;SDS011;7101;51.600;7.310;2023-03-05T10:04:03;5.18;;;3.30;;
14052;SDS011;7101;51.600;7.310;2023-03-05T10:06:46;6.00;;;3.20;;
14052;SDS011;7101;51.600;7.310;2023-03-05T10:09:17;6.25;;;3.28;;
14052;SDS011;7101;51.600;7.310;2023-03-05T10:11:58;6.55;;;3.30;;
14052;SDS011;7101;51.600;7.310;2023-03-05T10:14:29;5.50;;;2.72;;
14052;SDS011;7101;51.600;7.310;2023-03-05T10:23:13;3.90;;;2.35;;
14052;SDS011;7101;51.600;7.310;2023-03-05T10:25:52;5.90;;;2.38;;
14052;SDS011;7101;51.600;7.310;2023-03-05T10:28:27;3.58;;;2.28;;
14052;SDS011;7101;51.600;7.310;2023-03-05T10:31:03;4.68;;;2.30;;
14052;SDS011;7101;51.600;7.310;2023-03-05T10:33:42;4.00;;;2.25;;
14052;SDS011;7101;51.600;7.310;2023-03-05T10:36:26;6.47;;;3.08;;
14052;SDS011;7101;51.600;7.310;2023-03-05T10:39:38;4.15;;;2.85;;
14052;SDS011;7101;51.600;7.310;2023-03-05T10:42:19;4.65;;;2.55;;
14052;SDS011;7101;51.600;7.310;2023-03-05T10:44:53;3.90;;;2.55;;
14052;SDS011;7101;51.600;7.310;2023-03-05T10:47:24;5.85;;;2.20;;
14052;SDS011;7101;51.600;7.310;2023-03-05T10:49:55;5.68;;;2.20;;
14052;SDS011;7101;51.600;7.310;2023-03-05T10:52:26;5.22;;;2.45;;
14052;SDS011;7101;51.600;7.310;2023-03-05T10:54:58;6.25;;;3.08;;
14052;SDS011;7101;51.600;7.310;2023-03-05T10:57:26;6.40;;;3.70;;
14052;SDS011;7101;51.600;7.310;2023-03-05T10:59:53;5.80;;;3.75;;
14052;SDS011;7101;51.600;7.310;2023-03-05T11:02:27;5.30;;;3.33;;
14052;SDS011;7101;51.600;7.310;2023-03-05T11:04:54;4.28;;;2.80;;
14052;SDS011;7101;51.600;7.310;2023-03-05T11:07:36;3.90;;;3.00;;
14052;SDS011;7101;51.600;7.310;2023-03-05T11:10:13;5.80;;;4.28;;
14052;SDS011;7101;51.600;7.310;2023-03-05T11:12:42;5.47;;;3.75;;
14052;SDS011;7101;51.600;7.310;2023-03-05T11:15:20;7.43;;;4.60;;
14052;SDS011;7101;51.600;7.310;2023-03-05T11:20:48;5.68;;;4.07;;
14052;SDS011;7101;51.600;7.310;2023-03-05T11:23:16;5.22;;;3.40;;
14052;SDS011;7101;51.600;7.310;2023-03-05T11:25:58;3.60;;;2.90;;
14052;SDS011;7101;51.600;7.310;2023-03-05T11:28:28;4.25;;;2.20;;
14052;SDS011;7101;51.600;7.310;2023-03-05T11:30:59;4.20;;;2.53;;
14052;SDS011;7101;51.600;7.310;2023-03-05T11:33:30;3.70;;;1.92;;
14052;SDS011;7101;51.600;7.310;2023-03-05T11:36:10;2.08;;;1.45;;
14052;SDS011;7101;51.600;7.310;2023-03-05T11:38:46;3.58;;;1.40;;
14052;SDS011;7101;51.600;7.310;2023-03-05T11:41:22;3.05;;;1.38;;
14052;SDS011;7101;51.600;7.310;2023-03-05T11:43:58;3.17;;;1.60;;
14052;SDS011;7101;51.600;7.310;2023-03-05T11:46:37;2.78;;;1.38;;
14052;SDS011;7101;51.600;7.310;2023-03-05T11:49:07;3.45;;;1.50;;
14052;SDS011;7101;51.600;7.310;2023-03-05T11:51:39;4.72;;;1.40;;
14052;SDS011;7101;51.600;7.310;2023-03-05T11:54:11;3.88;;;1.40;;
14052;SDS011;7101;51.600;7.310;2023-03-05T11:56:44;3.70;;;1.30;;
14052;SDS011;7101;51.600;7.310;2023-03-05T11:59:13;1.67;;;1.10;;
14052;SDS011;7101;51.600;7.310;2023-03-05T12:01:44;3.83;;;1.90;;
14052;SDS011;7101;51.600;7.310;2023-03-05T12:04:13;3.70;;;1.60;;
14052;SDS011;7101;51.600;7.310;2023-03-05T12:06:42;3.78;;;1.42;;
14052;SDS011;7101;51.600;7.310;2023-03-05T12:09:13;4.20;;;1.52;;
14052;SDS011;7101;51.600;7.310;2023-03-05T12:11:47;5.15;;;1.70;;
14052;SDS011;7101;51.600;7.310;2023-03-05T12:14:18;4.97;;;1.63;;
14052;SDS011;7101;51.600;7.310;2023-03-05T12:16:52;3.03;;;1.50;;
14052;SDS011;7101;51.600;7.310;2023-03-05T12:19:32;4.65;;;2.33;;
14052;SDS011;7101;51.600;7.310;2023-03-05T12:22:14;5.28;;;1.90;;
14052;SDS011;7101;51.600;7.310;2023-03-05T12:24:44;2.92;;;2.10;;
14052;SDS011;7101;51.600;7.310;2023-03-05T12:27:13;4.80;;;2.20;;
14052;SDS011;7101;51.600;7.310;2023-03-05T12:29:44;3.92;;;1.80;;
14052;SDS011;7101;51.600;7.310;2023-03-05T12:35:30;3.65;;;1.88;;
14052;SDS011;7101;51.600;7.310;2023-03-05T12:38:27;3.42;;;1.80;;
14052;SDS011;7101;51.600;7.310;2023-03-05T12:44:13;3.95;;;2.08;;
14052;SDS011;7101;51.600;7.310;2023-03-05T12:46:43;4.95;;;2.30;;
14052;SDS011;7101;51.600;7.310;2023-03-05T12:49:28;4.78;;;1.80;;
14052;SDS011;7101;51.600;7.310;2023-03-05T12:52:03;3.50;;;1.90;;
14052;SDS011;7101;51.600;7.310;2023-03-05T12:54:39;3.85;;;1.90;;
14052;SDS011;7101;51.600;7.310;2023-03-05T12:57:14;2.90;;;2.00;;
14052;SDS011;7101;51.600;7.310;2023-03-05T12:59:45;3.38;;;2.10;;
14052;SDS011;7101;51.600;7.310;2023-03-05T13:02:19;2.80;;;1.90;;
14052;SDS011;7101;51.600;7.310;2023-03-05T13:04:51;2.75;;;1.38;;
14052;SDS011;7101;51.600;7.310;2023-03-05T13:07:22;3.58;;;1.33;;
14052;SDS011;7101;51.600;7.310;2023-03-05T13:09:52;3.65;;;1.40;;
14052;SDS011;7101;51.600;7.310;2023-03-05T13:12:21;7.63;;;1.50;;
14052;SDS011;7101;51.600;7.310;2023-03-05T13:14:55;3.22;;;1.05;;
14052;SDS011;7101;51.600;7.310;2023-03-05T13:17:26;3.53;;;1.50;;
14052;SDS011;7101;51.600;7.310;2023-03-05T13:19:55;4.05;;;1.27;;
14052;SDS011;7101;51.600;7.310;2023-03-05T13:22:22;3.67;;;1.90;;
14052;SDS011;7101;51.600;7.310;2023-03-05T13:25:02;3.85;;;2.05;;
14052;SDS011;7101;51.600;7.310;2023-03-05T13:27:39;4.22;;;2.40;;
14052;SDS011;7101;51.600;7.310;2023-03-05T13:30:20;3.03;;;1.90;;
14052;SDS011;7101;51.600;7.310;2023-03-05T13:32:49;1.92;;;1.40;;
14052;SDS011;7101;51.600;7.310;2023-03-05T13:35:17;2.33;;;1.48;;
14052;SDS011;7101;51.600;7.310;2023-03-05T13:37:45;2.58;;;1.60;;
14052;SDS011;7101;51.600;7.310;2023-03-05T13:40:16;4.25;;;2.28;;
14052;SDS011;7101;51.600;7.310;2023-03-05T13:42:45;3.35;;;2.10;;
14052;SDS011;7101;51.600;7.310;2023-03-05T13:45:21;4.07;;;2.80;;
14052;SDS011;7101;51.600;7.310;2023-03-05T13:47:51;6.93;;;5.00;;
14052;SDS011;7101;51.600;7.310;2023-03-05T13:50:22;3.70;;;2.25;;
14052;SDS011;7101;51.600;7.310;2023-03-05T13:52:51;3.85;;;2.70;;
14052;SDS011;7101;51.600;7.310;2023-03-05T13:55:18;9.85;;;5.85;;
14052;SDS011;7101;51.600;7.310;2023-03-05T13:57:46;9.35;;;4.70;;
14052;SDS011;7101;51.600;7.310;2023-03-05T14:00:36;4.88;;;2.20;;
14052;SDS011;7101;51.600;7.310;2023-03-05T14:03:07;31.63;;;21.38;;
14052;SDS011;7101;51.600;7.310;2023-03-05T14:05:36;8.75;;;6.32;;
14052;SDS011;7101;51.600;7.310;2023-03-05T14:08:14;12.95;;;9.63;;
14052;SDS011;7101;51.600;7.310;2023-03-05T14:10:45;4.78;;;3.08;;
14052;SDS011;7101;51.600;7.310;2023-03-05T14:13:16;4.05;;;1.52;;
14052;SDS011;7101;51.600;7.310;2023-03-05T14:18:30;4.68;;;1.60;;
14052;SDS011;7101;51.600;7.310;2023-03-05T14:20:58;5.38;;;4.55;;
14052;SDS011;7101;51.600;7.310;2023-03-05T14:23:33;6.63;;;4.82;;
14052;SDS011;7101;51.600;7.310;2023-03-05T14:26:22;4.43;;;3.70;;
14052;SDS011;7101;51.600;7.310;2023-03-05T14:28:53;5.07;;;4.40;;
14052;SDS011;7101;51.600;7.310;2023-03-05T14:31:22;4.35;;;1.83;;
14052;SDS011;7101;51.600;7.310;2023-03-05T14:33:51;3.67;;;1.58;;
14052;SDS011;7101;51.600;7.310;2023-03-05T14:36:21;5.15;;;4.13;;
14052;SDS011;7101;51.600;7.310;2023-03-05T14:38:49;2.00;;;1.10;;
14052;SDS011;7101;51.600;7.310;2023-03-05T14:41:18;3.22;;;1.30;;
14052;SDS011;7101;51.600;7.310;2023-03-05T14:44:07;4.75;;;1.30;;
14052;SDS011;7101;51.600;7.310;2023-03-05T14:46:38;5.82;;;2.30;;
14052;SDS011;7101;51.600;7.310;2023-03-05T14:49:06;3.38;;;2.08;;
14052;SDS011;7101;51.600;7.310;2023-03-05T14:51:38;4.30;;;2.40;;
14052;SDS011;7101;51.600;7.310;2023-03-05T14:54:14;2.55;;;1.20;;
14052;SDS011;7101;51.600;7.310;2023-03-05T14:56:43;3.85;;;1.70;;
14052;SDS011;7101;51.600;7.310;2023-03-05T14:59:10;4.18;;;2.80;;
14052;SDS011;7101;51.600;7.310;2023-03-05T15:01:39;2.05;;;1.30;;
14052;SDS011;7101;51.600;7.310;2023-03-05T15:04:05;3.67;;;2.20;;
14052;SDS011;7101;51.600;7.310;2023-03-05T15:06:33;9.75;;;8.63;;
14052;SDS011;7101;51.600;7.310;2023-03-05T15:09:04;9.77;;;7.60;;
14052;SDS011;7101;51.600;7.310;2023-03-05T15:11:33;3.55;;;2.55;;
14052;SDS011;7101;51.600;7.310;2023-03-05T15:14:00;3.08;;;1.50;;
14052;SDS011;7101;51.600;7.310;2023-03-05T15:16:27;1.98;;;1.05;;
14052;SDS011;7101;51.600;7.310;2023-03-05T15:18:55;3.83;;;1.10;;
14052;SDS011;7101;51.600;7.310;2023-03-05T15:21:22;1.60;;;1.02;;
14052;SDS011;7101;51.600;7.310;2023-03-05T15:23:49;1.75;;;1.10;;
14052;SDS011;7101;51.600;7.310;2023-03-05T15:26:16;2.10;;;1.08;;
14052;SDS011;7101;51.600;7.310;2023-03-05T15:28:43;2.88;;;1.30;;
14052;SDS011;7101;51.600;7.310;2023-03-05T15:31:09;3.33;;;1.90;;
14052;SDS011;7101;51.600;7.310;2023-03-05T15:33:37;3.13;;;2.10;;